Ashfield, Pennsylvania
Current Conditions -  °F | °C
As of 12:51 PM on Friday 24 Oct 2014 (Local Time) from KABE Reporting Station
Clear Clear  
Wind Chill: 65°   Ceiling: Unl
Heat Index: 65°   Visibility: 10mi
Dew Point: 42°   Wind: 20mph
Humidity: 43%   Direction: 330°NNW
Pressure: 29.84"   Gusts: 26mph
Location:  40.78°N, 75.71°W
Report Text: KABE 241651Z 33017G23KT 10SM CLR 18/06 A2984 RMK AO2 PK WND 34026/1634 SLP104 T01830056
Loading
Personal Weather Stations






























Interactive Weather Map New forecast layout! Learn more

10-Day Weather Forecast

Advertisements
Track Severe Weather on mobile